Stations météo

réclame
Mon MeteoGroup
Berlin/Tempelhof, Allemagne (10384): Température de l'air & dewpoint: 18.05.2019 03:00:00 - 24.05.2019 03:00:00 (CEST)Berlin/Tempelhof, Allemagne (10384): Température de l'air 5cm & Température de l'air -5cm: 18.05.2019 03:00:00 - 24.05.2019 03:00:00 (CEST)Berlin/Tempelhof, Allemagne (10384): Température de l'air -20cm & Température de l'air -100cm: 18.05.2019 03:00:00 - 24.05.2019 03:00:00 (CEST)Berlin/Tempelhof, Allemagne (10384): Vitesse du vent & gusts: 18.05.2019 03:00:00 - 24.05.2019 03:00:00 (CEST)Berlin/Tempelhof, Allemagne (10384): Direction du vent: 18.05.2019 03:00:00 - 24.05.2019 03:00:00 (CEST)Berlin/Tempelhof, Allemagne (10384): reduced air pressure: 18.05.2019 03:00:00 - 24.05.2019 03:00:00 (CEST)Berlin/Tempelhof, Allemagne (10384): Ensoleillement: 18.05.2019 03:00:00 - 24.05.2019 03:00:00 (CEST)Berlin/Tempelhof, Allemagne (10384): Quantités de précipitations: 18.05.2019 03:00:00 - 24.05.2019 03:00:00 (CEST)
Date & Time tt [°C] td [°C] tt 5cm [°C] tt -5cm [°C] tt -20cm [°C] tt -100cm [°C] ff [km/h] ff [knt] fx [km/h] fx [knt] dd ppp [hPa] sd [min] rr [mm]
24.05.2019 03:00:00 11,9 9,4 6,5 13,0 15,6 12,4 5 3 11 6 S 1016,6 0 0,0
24.05.2019 02:00:00 12,7 10,2 6,9 13,4 15,9 12,4 6 4 12 6 S 1016,8 0 0,0
24.05.2019 01:00:00 13,3 10,8 5,3 14,1 16,3 12,4 5 3 12 7 SSE 1017,1 0 0,0
24.05.2019 00:00:00 14,0 11,5 6,8 14,9 16,7 12,4 7 4 10 6 SE 1017,3 0 0,0
23.05.2019 23:00:00 14,6 12,1 6,8 15,9 17,0 12,4 6 4 9 5 ESE 1017,5 0 0,0
23.05.2019 22:00:00 14,8 12,3 8,6 17,1 17,3 12,4 8 4 10 6 E 1017,6 0 0,0
23.05.2019 21:00:00 15,0 12,5 10,2 18,6 17,6 12,4 9 5 14 8 NE 1017,3 0 0,0
23.05.2019 20:00:00 16,6 14,0 15,0 20,2 17,7 12,4 10 5 18 10 NE 1017,0 24 0,0
23.05.2019 19:00:00 18,5 15,9 20,3 21,6 17,6 12,4 11 6 25 13 N 1017,1 47 0,0
23.05.2019 18:00:00 18,3 15,7 20,7 22,9 17,4 12,4 13 7 24 13 N 1017,2 50 0,0
23.05.2019 17:00:00 18,8 16,2 24,2 23,7 16,9 12,4 8 4 27 15 NNW 1017,5 60 0,0
23.05.2019 16:00:00 18,1 15,5 23,6 23,7 16,4 12,4 14 7 27 15 NNW 1017,7 60 0,0
23.05.2019 15:00:00 17,3 14,7 22,8 22,9 15,9 12,4 16 9 27 15 NNW 1018,2 60 0,0
23.05.2019 14:00:00 17,4 14,8 22,7 22,6 15,2 12,4 11 6 26 14 NW 1018,5 60 0,0
23.05.2019 13:00:00 16,9 14,3 21,4 21,7 14,6 12,4 15 8 29 15 NW 1018,7 60 0,0
23.05.2019 12:00:00 16,1 13,5 20,2 19,6 14,0 12,4 14 7 27 14 WNW 1018,8 59 0,0
23.05.2019 11:00:00 14,6 12,1 19,4 17,4 13,5 12,4 12 6 28 15 NW 1019,0 53 0,0
23.05.2019 10:00:00 13,6 11,1 17,1 15,1 13,3 12,4 13 7 26 14 NW 1019,1 60 0,0
23.05.2019 09:00:00 12,2 9,7 15,0 12,8 13,2 12,4 13 7 22 12 NNW 1018,9 60 0,0
23.05.2019 08:00:00 10,8 8,4 11,7 11,3 13,3 12,4 14 8 24 13 NW 1018,8 58 0,0
23.05.2019 07:00:00 8,4 6,0 6,7 11,2 13,5 12,4 10 5 23 12 NW 1018,6 0 0,0
23.05.2019 06:00:00 9,1 6,7 7,7 11,6 13,6 12,4 14 8 23 13 NW 1018,1 0 0,0
23.05.2019 05:00:00 9,8 7,4 9,0 11,9 13,8 12,4 16 9 31 17 NW 1017,9 0 0,0
23.05.2019 04:00:00 10,7 8,3 10,2 12,1 13,9 12,3 19 10 29 15 NW 1017,8 0 0,0
23.05.2019 03:00:00 11,0 8,6 10,4 12,3 14,0 12,3 19 11 34 18 NW 1017,4 0 0,0
23.05.2019 02:00:00 11,6 9,2 11,0 12,5 14,1 12,3 23 13 34 18 NW 1017,4 0 0,0
23.05.2019 01:00:00 11,9 9,4 11,3 12,7 14,3 12,3 19 10 32 18 WNW 1017,1 0 0,0
23.05.2019 00:00:00 12,2 9,7 11,6 12,9 14,4 12,3 23 13 35 19 NW 1016,8 0 0,0
22.05.2019 23:00:00 12,3 9,8 11,4 13,1 14,5 12,3 24 13 41 22 NW 1016,8 0 0,0
22.05.2019 22:00:00 12,6 10,1 11,5 13,3 14,7 12,3 22 12 37 20 NW 1016,4 0 0,0
22.05.2019 21:00:00 12,7 10,2 11,8 13,6 14,8 12,3 20 11 42 23 WNW 1015,7 0 0,0
22.05.2019 20:00:00 12,6 10,1 11,8 13,8 14,9 12,3 24 13 39 21 NW 1015,3 0 0,0
22.05.2019 19:00:00 12,5 10,0 11,7 14,0 15,0 12,3 20 11 41 22 NW 1015,0 0 0,0
22.05.2019 18:00:00 12,3 9,8 11,7 14,3 15,1 12,3 24 13 37 20 WNW 1014,7 0 0,0
22.05.2019 17:00:00 12,2 9,7 11,7 14,4 15,2 12,2 20 11 43 23 WNW 1014,4 0 0,5
22.05.2019 16:00:00 12,2 9,7 11,7 14,6 15,3 12,2 25 14 45 24 WNW 1014,0 0 0,1
22.05.2019 15:00:00 12,5 10,0 12,4 14,9 15,4 12,2 32 17 47 26 NW 1013,6 0 0,0
22.05.2019 14:00:00 12,5 10,0 12,7 15,1 15,5 12,2 21 12 47 26 WNW 1013,4 0 0,0
22.05.2019 13:00:00 12,6 10,1 12,7 15,1 15,5 12,2 29 16 44 24 WNW 1013,0 0 0,0
22.05.2019 12:00:00 12,4 9,9 12,7 14,9 15,6 12,2 22 12 42 23 WNW 1012,6 0 0,0
22.05.2019 11:00:00 12,2 9,7 12,0 14,8 15,7 12,2 29 15 49 26 WNW 1012,0 0 0,0
22.05.2019 10:00:00 12,3 9,8 12,0 14,9 15,9 12,1 27 15 45 24 WNW 1011,6 0 0,1
22.05.2019 09:00:00 12,0 9,5 11,7 15,0 16,1 12,1 28 15 43 23 WNW 1011,2 0 0,4
22.05.2019 08:00:00 12,5 10,0 12,0 15,2 16,2 12,1 27 15 39 21 WNW 1010,7 0 0,3
22.05.2019 07:00:00 12,9 10,4 12,7 15,5 16,4 12,1 22 12 34 19 WNW 1010,4 0 0,1
22.05.2019 06:00:00 13,7 11,2 13,3 15,8 16,6 12,1 21 12 34 18 WNW 1009,9 0 0,0
22.05.2019 05:00:00 13,8 11,3 13,5 16,1 16,8 12,1 27 15 39 21 NW 1009,5 0 0,0
22.05.2019 04:00:00 14,4 11,9 13,9 16,4 17,0 12,0 17 9 35 19 NW 1009,3 0 0,0
22.05.2019 03:00:00 14,9 12,4 14,2 16,8 17,2 12,0 23 13 41 22 WNW 1008,9 0 0,0
22.05.2019 02:00:00 15,8 13,2 15,1 17,1 17,4 12,0 23 13 35 19 WNW 1008,5 0 0,2
22.05.2019 01:00:00 16,0 13,4 15,1 17,4 17,7 12,0 13 7 27 14 NW 1008,4 0 0,0
22.05.2019 00:00:00 15,9 13,3 15,0 17,8 17,9 12,0 18 10 29 15 NW 1008,3 0 0,1
21.05.2019 23:00:00 17,3 14,7 16,0 18,4 18,2 12,0 14 7 26 14 NNE 1008,3 0 0,0
21.05.2019 22:00:00 18,9 16,3 18,0 18,9 18,4 12,0 18 10 29 16 NNW 1007,6 0 0,0
21.05.2019 21:00:00 19,3 16,7 17,4 19,8 18,7 12,0 14 8 24 13 NW 1006,7 18 0,0
21.05.2019 20:00:00 20,9 18,2 19,7 21,0 18,8 11,9 14 8 22 12 NW 1006,0 56 0,0
21.05.2019 19:00:00 20,7 18,0 20,0 22,2 18,9 11,9 16 9 27 14 NW 1005,7 46 0,0
21.05.2019 18:00:00 22,6 19,9 24,9 22,8 18,8 11,9 15 8 26 14 WNW 1005,3 14 0,0
21.05.2019 17:00:00 21,8 19,1 20,9 25,4 18,4 11,9 13 7 24 13 NNW 1005,1 23 0,0
21.05.2019 16:00:00 23,3 20,6 31,2 25,8 17,9 11,9 6 3 19 11 NE 1005,1 52 0,0
21.05.2019 15:00:00 23,1 20,4 26,0 24,3 17,4 11,9 4 2 11 6 W 1005,2 36 0,0
21.05.2019 14:00:00 21,9 19,2 24,7 24,2 16,9 11,9 5 3 11 6 E 1005,2 28 0,0
21.05.2019 13:00:00 21,5 18,8 26,7 23,5 16,2 11,9 5 3 13 7 NNW 1005,0 44 0,0
21.05.2019 12:00:00 20,4 17,7 23,2 22,1 15,6 11,8 7 4 16 9 ENE 1005,0 46 0,0
21.05.2019 11:00:00 20,7 18,0 23,1 20,4 15,1 11,8 6 3 14 8 SE 1004,7 59 0,0
21.05.2019 10:00:00 19,0 16,4 20,7 17,9 14,8 11,8 6 4 13 7 ESE 1004,4 60 0,0
21.05.2019 09:00:00 17,1 14,5 16,9 15,2 14,7 11,8 5 3 11 6 ESE 1004,1 60 0,0
21.05.2019 08:00:00 15,5 13,0 15,2 13,5 14,8 11,8 9 5 14 8 E 1004,0 60 0,0
21.05.2019 07:00:00 14,3 11,8 13,2 12,9 15,0 11,8 7 4 11 6 E 1003,8 60 -
21.05.2019 06:00:00 12,5 10,0 8,1 12,9 15,3 11,8 6 4 10 6 ENE 1003,7 21 -
21.05.2019 05:00:00 12,0 9,5 6,0 13,4 15,6 11,7 6 3 7 4 NE 1003,1 0 -
21.05.2019 04:00:00 12,9 10,4 6,9 14,0 16,0 11,7 3 1 6 3 NE 1002,9 0 -
21.05.2019 03:00:00 13,6 11,1 7,6 14,6 16,3 11,7 3 1 5 3 N 1002,9 0 -
21.05.2019 02:00:00 13,2 10,7 8,3 15,3 16,5 11,7 4 2 7 4 NNE 1002,7 0 -
21.05.2019 01:00:00 14,6 12,1 11,6 16,1 16,8 11,7 7 4 14 8 ESE 1002,6 0 -
21.05.2019 00:00:00 15,0 12,5 13,2 16,7 17,0 11,7 9 5 13 7 ESE 1002,5 0 -
20.05.2019 23:00:00 16,2 13,6 15,1 17,4 17,3 11,7 9 5 20 11 ESE 1002,1 0 -
20.05.2019 22:00:00 16,8 14,2 15,3 18,1 17,4 11,6 10 6 24 13 ESE 1001,6 0 -
20.05.2019 21:00:00 17,3 14,7 16,7 18,6 17,5 11,6 14 8 36 19 ENE 1001,0 0 -
20.05.2019 20:00:00 18,2 15,6 17,6 19,1 17,7 11,6 18 10 29 16 NNE 1000,9 0 -
20.05.2019 19:00:00 18,0 15,4 17,7 19,2 17,9 11,6 13 7 30 16 NNE 1000,8 13 -
20.05.2019 18:00:00 16,6 14,0 15,9 20,1 18,1 11,6 10 6 45 24 NNE 1001,5 0 -
20.05.2019 17:00:00 20,2 15,9 17,7 21,9 18,1 11,6 12 7 23 12 NNE 1001,0 0 0,4
20.05.2019 16:00:00 22,4 13,1 21,7 23,5 18,0 11,6 16 9 25 13 NNE 1001,0 0 0,0
20.05.2019 15:00:00 23,5 13,2 25,2 24,1 17,7 11,6 16 8 28 15 NE 1001,5 0 0,0
20.05.2019 14:00:00 23,7 13,0 26,0 24,7 17,2 11,5 18 10 32 17 ENE 1002,1 2 0,0
20.05.2019 13:00:00 25,0 11,7 30,9 25,6 16,5 11,5 21 12 33 18 E 1002,2 54 0,0
20.05.2019 12:00:00 23,4 11,5 27,0 23,6 15,9 11,5 19 10 32 17 E 1002,4 59 0,0
20.05.2019 11:00:00 22,4 13,0 26,8 21,4 15,5 11,5 14 7 26 14 ENE 1002,7 60 0,0
20.05.2019 10:00:00 20,0 13,7 23,0 18,6 15,2 11,5 13 7 21 12 NE 1002,9 60 0,0
20.05.2019 09:00:00 18,1 14,0 19,7 16,1 15,2 11,5 11 6 21 11 NE 1003,2 58 0,0
20.05.2019 08:00:00 16,2 13,5 15,2 14,8 15,3 11,5 14 7 23 13 ENE 1003,3 35 0,0
20.05.2019 07:00:00 15,6 13,2 14,0 14,4 15,6 11,4 14 8 22 12 ENE 1003,4 52 0,0
20.05.2019 06:00:00 14,8 12,9 12,3 14,3 15,8 11,4 9 5 14 8 NE 1003,3 0 0,0
20.05.2019 05:00:00 14,5 12,6 10,2 14,7 16,1 11,4 9 5 14 8 NE 1003,4 0 0,0
20.05.2019 04:00:00 15,1 13,1 10,6 15,2 16,4 11,4 5 3 16 9 NE 1003,7 0 0,0
20.05.2019 03:00:00 15,2 13,2 12,3 15,6 16,7 11,4 10 5 15 8 E 1004,0 0 0,0
20.05.2019 02:00:00 15,4 13,2 9,0 16,4 17,1 11,4 8 4 11 6 NNE 1004,0 0 0,0
20.05.2019 01:00:00 16,6 13,4 10,2 17,4 17,3 11,3 7 4 19 11 NNE 1004,1 0 0,0
20.05.2019 00:00:00 18,0 14,0 14,5 18,4 17,6 11,3 10 6 18 10 N 1004,4 0 0,0
19.05.2019 23:00:00 18,5 14,6 16,2 19,0 17,9 11,3 13 7 19 11 ENE 1004,3 0 0,4
19.05.2019 22:00:00 19,4 14,2 17,2 19,7 18,1 11,3 15 8 27 15 NE 1004,2 0 0,0
19.05.2019 21:00:00 20,5 14,4 18,3 20,6 18,4 11,3 17 9 32 17 NE 1004,2 15 0,0
19.05.2019 20:00:00 21,0 14,7 19,9 21,8 18,5 11,3 14 8 24 13 NE 1003,9 14 0,0
19.05.2019 19:00:00 21,1 13,5 20,2 23,2 18,6 11,3 17 9 24 13 NE 1004,0 25 0,0
19.05.2019 18:00:00 20,7 15,3 20,2 24,6 18,5 11,3 11 6 28 15 NE 1004,4 19 0,1
19.05.2019 17:00:00 21,8 14,3 23,4 25,5 18,2 11,3 21 12 36 19 ENE 1004,4 11 0,0
19.05.2019 16:00:00 24,5 10,5 26,7 27,4 17,6 11,2 16 9 29 16 ENE 1004,5 29 0,0
19.05.2019 15:00:00 25,8 10,6 33,4 27,3 16,9 11,2 12 7 31 17 E 1004,8 48 0,0
19.05.2019 14:00:00 25,0 9,6 31,2 26,1 16,2 11,2 16 9 31 17 ESE 1005,1 39 0,0
19.05.2019 13:00:00 24,2 10,1 29,0 25,2 15,4 11,2 17 9 33 18 ESE 1005,5 59 0,0
19.05.2019 12:00:00 23,6 10,9 28,8 22,6 14,8 11,2 15 8 38 20 E 1005,8 60 0,0
19.05.2019 11:00:00 23,2 10,1 26,9 20,3 14,2 11,2 19 11 35 19 E 1006,1 60 0,0
19.05.2019 10:00:00 21,6 10,7 24,5 17,6 13,9 11,2 10 5 20 11 E 1006,6 60 0,0
19.05.2019 09:00:00 18,3 10,5 20,7 14,8 13,8 11,1 7 4 14 7 E 1006,8 60 0,0
19.05.2019 08:00:00 15,5 10,0 16,2 13,3 13,9 11,1 8 4 16 9 E 1007,0 51 0,0
19.05.2019 07:00:00 14,1 10,4 12,5 12,4 14,2 11,1 4 2 11 6 E 1007,0 46 0,0
19.05.2019 06:00:00 12,5 8,7 7,4 12,2 14,5 11,1 5 3 13 7 E 1007,0 13 0,0
19.05.2019 05:00:00 12,6 8,7 5,3 12,5 14,8 11,1 5 3 12 6 ENE 1006,7 0 0,0
19.05.2019 04:00:00 11,3 8,3 4,1 13,0 15,2 11,1 6 4 11 6 ENE 1007,0 0 0,0
19.05.2019 03:00:00 12,6 9,0 4,7 13,6 15,6 11,1 3 2 4 2 ESE 1007,2 0 0,0
19.05.2019 02:00:00 13,0 9,0 5,2 14,4 16,0 11,1 2 1 5 3 E 1007,0 0 0,0
19.05.2019 01:00:00 12,9 9,0 5,7 15,2 16,4 11,1 6 3 10 5 E 1007,2 0 0,0
19.05.2019 00:00:00 14,0 9,4 6,4 16,3 16,8 11,0 0 0 6 3 N 1007,1 0 0,0
18.05.2019 23:00:00 17,1 9,8 8,0 17,5 17,2 11,0 5 3 8 5 SE 1007,3 0 0,0
18.05.2019 22:00:00 17,9 9,2 9,4 18,8 17,5 11,0 3 2 4 2 SE 1007,1 0 0,0
18.05.2019 21:00:00 21,4 8,4 13,0 20,5 17,7 11,0 4 2 16 8 SW 1006,4 26 0,0
18.05.2019 20:00:00 22,8 7,2 21,2 22,3 17,8 11,0 8 5 18 10 S 1006,1 60 0,0
18.05.2019 19:00:00 23,3 6,9 25,2 24,1 17,6 11,0 11 6 26 14 S 1006,0 60 0,0
18.05.2019 18:00:00 23,7 6,9 27,0 25,4 17,2 11,0 12 7 29 16 S 1006,0 60 0,0
18.05.2019 17:00:00 23,8 6,7 29,0 25,9 16,6 11,0 13 7 27 15 S 1006,1 57 0,0
18.05.2019 16:00:00 23,8 6,1 28,7 25,8 16,0 11,0 17 9 34 19 SSE 1006,3 53 0,0
18.05.2019 15:00:00 23,8 7,5 30,3 25,0 15,3 11,0 18 10 37 20 SE 1006,7 53 0,0
18.05.2019 14:00:00 23,5 9,5 29,7 23,2 14,6 11,0 20 11 33 18 ESE 1006,9 45 0,0
18.05.2019 13:00:00 21,3 9,0 24,1 22,3 13,9 11,0 18 10 38 20 SE 1007,4 46 0,0
18.05.2019 12:00:00 20,9 9,5 25,0 20,3 13,3 11,0 24 13 37 20 E 1007,9 60 0,0
18.05.2019 11:00:00 19,2 10,2 22,7 18,0 12,8 11,0 21 11 31 17 E 1008,4 60 0,0
18.05.2019 10:00:00 17,3 9,5 20,0 15,5 12,5 11,0 13 7 23 12 SE 1009,1 60 0,0
18.05.2019 09:00:00 15,8 9,5 17,0 13,0 12,5 11,0 13 7 22 12 ESE 1009,4 60 0,0
18.05.2019 08:00:00 13,5 10,7 12,8 11,4 12,6 10,9 11 6 16 9 ESE 1009,3 57 0,0
18.05.2019 07:00:00 10,8 9,6 8,7 11,0 12,8 10,9 6 4 16 9 ESE 1009,4 36 0,0
18.05.2019 06:00:00 10,6 9,6 9,3 11,0 13,0 10,9 11 6 17 9 E 1009,5 8 0,0
18.05.2019 05:00:00 10,4 9,2 6,2 11,4 13,3 10,9 8 5 14 8 E 1009,4 0 0,0
18.05.2019 04:00:00 11,0 9,5 8,6 11,8 13,5 10,9 10 5 14 8 E 1009,6 0 0,0
18.05.2019 03:00:00 11,3 9,4 6,0 12,4 13,8 10,9 9 5 13 7 E 1009,5 0 0,0

tt = Température de l'air
td = dewpoint
tt 5cm = Température de l'air 5cm
tt -5cm = Température de l'air -5cm
tt -20cm = Température de l'air -20cm
tt -100cm = Température de l'air -100cm
ff = Vitesse du vent
fx = gusts
dd = Direction du vent
ppp = reduced air pressure
sd = Ensoleillement
rr = Quantités de précipitations

stations d'obs. à proximité